24h
KLIENDITUGI:
Saartelennuliinid: +372 58856336 (24/7)
Estairi piletikassa lennujaamas:
+372 6058887; +372 55603687

30.01.2019 hommikune Transaviabaltika lend KTB670 kell 07:00 (kohalik aeg) Tallinn - Kärdla väljalend ja KTB671 kell 07:45 Kärdla – Tallinn väljalend jääb ära. Lennu ära jäämise põhjustab ilmastikuolu Kärdla lennuväljal. Kõikidele reisijatele tagastatakse piletiraha või vormistatakse pilet hilisemale lennule. Lisainformatsioon 58856336. Informatsiooni vahetus: [email protected]

EEKA Kärdla lennuväli FCEO32 EETN 300400

TAF EEKA 300400Z 3005/3011 19010KT 8000 OVC006

TEMPO 3005/3011 2000 SHSNRA BKN003 SCT013CB OVC015=

METAR EEKA 300450Z 19005KT 7000 -SN OVC003 00/00 Q0999=

Kuupäev: 
30/01/2019